Time;durP1;ratioP1;P1;durP2;ratioP2;P2;SDS_P1;SDS_P2;PMS_P1;PMS_P2;Temp;Humidity;BMP_temperature;BMP_pressure;BME280_temperature;BME280_humidity;BME280_pressure;Samples;Min_cycle;Max_cycle;Signal;HPM_P1;HPM_P2
2021/07/19 00:02:47;;;;;;;5.32;3.42;;;;;;;26.13;56.78;100080.53;4862607;29;20057;-75
2021/07/19 00:05:51;;;;;;;7.63;3.95;;;;;;;25.96;57.11;100076.81;4851467;29;20488;-74
2021/07/19 00:08:55;;;;;;;4.65;3.42;;;;;;;25.81;56.33;100079.22;4862339;29;20049;-74
2021/07/19 00:12:01;;;;;;;5.95;3.58;;;;;;;25.53;56.17;100073.63;4862928;29;20060;-74
2021/07/19 00:15:07;;;;;;;9.10;3.17;;;;;;;25.41;56.60;100073.56;4861936;29;20076;-74
2021/07/19 00:18:11;;;;;;;5.80;3.00;;;;;;;25.37;57.19;100082.53;4862252;29;20068;-73
2021/07/19 00:21:16;;;;;;;7.53;3.70;;;;;;;25.28;57.24;100076.56;4862433;29;20064;-74
2021/07/19 00:24:21;;;;;;;4.90;3.35;;;;;;;25.29;57.26;100077.38;4862239;29;20056;-74
2021/07/19 00:27:25;;;;;;;4.35;3.20;;;;;;;25.35;57.61;100081.94;4862441;29;20060;-74
2021/07/19 00:30:32;;;;;;;9.10;3.72;;;;;;;25.40;57.38;100084.81;4862491;29;20064;-73
2021/07/19 00:33:36;;;;;;;5.20;3.75;;;;;;;25.44;57.19;100077.75;4862001;29;20076;-74
2021/07/19 00:36:44;;;;;;;4.25;3.08;;;;;;;25.47;57.32;100091.91;4851629;29;20056;-74
2021/07/19 00:39:49;;;;;;;4.40;3.10;;;;;;;25.40;57.45;100082.91;4861529;29;20076;-75
2021/07/19 00:42:53;;;;;;;5.10;3.17;;;;;;;25.40;57.47;100082.91;4862054;29;20061;-74
2021/07/19 00:45:58;;;;;;;5.78;3.67;;;;;;;25.38;58.01;100087.78;4862009;29;20052;-73
2021/07/19 00:49:02;;;;;;;8.45;4.35;;;;;;;25.15;58.77;100090.50;4861534;29;20541;-74
2021/07/19 00:52:06;;;;;;;5.25;3.47;;;;;;;25.04;58.54;100086.66;4862169;29;20056;-74
2021/07/19 00:55:12;;;;;;;5.97;3.13;;;;;;;24.93;58.57;100095.69;4861228;29;20501;-74
2021/07/19 00:58:19;;;;;;;8.82;3.83;;;;;;;24.84;58.68;100097.09;4850697;29;20049;-75
2021/07/19 01:01:26;;;;;;;4.72;3.60;;;;;;;24.69;58.46;100085.66;4850645;29;20053;-74
2021/07/19 01:04:31;;;;;;;4.78;3.35;;;;;;;24.60;58.91;100095.28;4850661;29;20048;-74
2021/07/19 01:07:39;;;;;;;6.63;3.63;;;;;;;24.57;59.10;100091.09;4879035;29;20056;-73
2021/07/19 01:10:47;;;;;;;5.22;3.40;;;;;;;24.52;59.07;100092.84;4880412;29;20377;-74
2021/07/19 01:13:52;;;;;;;4.53;3.50;;;;;;;24.48;59.53;100097.16;4884362;29;20406;-74
2021/07/19 01:16:58;;;;;;;4.40;3.28;;;;;;;24.30;60.34;100110.88;4883824;29;20052;-74
2021/07/19 01:20:05;;;;;;;6.18;3.35;;;;;;;24.25;60.77;100103.34;4872600;29;20067;-74
2021/07/19 01:23:50;;;;;;;4.15;3.17;;;;;;;24.20;60.81;100114.16;4872965;29;20385;-73
2021/07/19 01:27:13;;;;;;;6.30;3.53;;;;;;;24.12;60.92;100102.66;4872773;29;20405;-74
2021/07/19 01:30:18;;;;;;;4.25;3.22;;;;;;;24.10;61.22;100104.78;4883983;29;20060;-75
2021/07/19 01:33:25;;;;;;;5.55;2.92;;;;;;;24.23;61.06;100112.84;4883045;29;20405;-75
2021/07/19 01:36:33;;;;;;;7.55;3.40;;;;;;;24.32;60.72;100119.75;4872391;29;20552;-74
2021/07/19 01:39:59;;;;;;;6.00;3.58;;;;;;;24.39;61.14;100117.75;4883017;29;20055;-73
2021/07/19 01:43:09;;;;;;;5.70;3.60;;;;;;;24.36;61.60;100120.94;4872290;29;20068;-76
2021/07/19 01:46:15;;;;;;;8.77;3.58;;;;;;;24.33;62.11;100124.13;4883772;29;20052;-73
2021/07/19 01:49:22;;;;;;;5.90;3.42;;;;;;;24.26;62.97;100120.63;4872112;29;20048;-74
2021/07/19 01:52:29;;;;;;;7.97;3.80;;;;;;;24.23;63.04;100124.69;4871825;29;20056;-72
2021/07/19 01:55:36;;;;;;;7.43;3.78;;;;;;;24.24;62.61;100128.25;4872032;29;20072;-74
2021/07/19 01:58:44;;;;;;;8.40;3.80;;;;;;;24.21;62.34;100125.97;4871833;29;20048;-74
2021/07/19 02:01:54;;;;;;;6.50;3.83;;;;;;;24.23;62.31;100127.41;4871775;29;20056;-73
2021/07/19 02:05:00;;;;;;;5.78;4.03;;;;;;;24.17;62.73;100116.53;4861749;29;20067;-73
2021/07/19 02:08:07;;;;;;;4.78;3.50;;;;;;;24.12;63.42;100117.19;4871886;29;20393;-74
2021/07/19 02:11:28;;;;;;;5.95;3.42;;;;;;;24.12;63.60;100121.88;4882667;29;20064;-75
2021/07/19 02:14:35;;;;;;;6.18;3.95;;;;;;;24.13;63.31;100124.38;4871943;29;20067;-74
2021/07/19 02:17:52;;;;;;;5.65;3.17;;;;;;;24.05;63.61;100119.13;4871680;29;20052;-73
2021/07/19 02:21:04;;;;;;;6.72;3.67;;;;;;;24.01;63.78;100128.91;4871425;29;20503;-73
2021/07/19 02:24:12;;;;;;;5.75;3.75;;;;;;;23.82;64.68;100122.56;4870216;29;20068;-73
2021/07/19 02:27:38;;;;;;;9.73;3.60;;;;;;;23.72;64.20;100127.72;4870985;29;20064;-73
2021/07/19 02:30:44;;;;;;;4.35;3.38;;;;;;;23.79;64.61;100133.97;4883024;29;20063;-73
2021/07/19 02:33:52;;;;;;;6.35;3.42;;;;;;;23.81;64.91;100137.31;4870959;29;20060;-73
2021/07/19 02:37:02;;;;;;;5.32;3.55;;;;;;;23.79;65.37;100131.25;4870709;29;20508;-73
2021/07/19 02:40:09;;;;;;;6.82;4.22;;;;;;;23.65;65.63;100140.63;4860976;29;20384;-73
2021/07/19 02:43:16;;;;;;;8.55;4.03;;;;;;;23.57;65.80;100126.38;4882711;29;20059;-74
2021/07/19 02:46:25;;;;;;;5.30;3.67;;;;;;;23.65;65.29;100139.81;4882520;29;20055;-74
2021/07/19 02:49:31;;;;;;;6.38;4.00;;;;;;;23.67;64.85;100134.94;4871511;29;20386;-73
2021/07/19 02:52:40;;;;;;;5.90;3.67;;;;;;;23.50;65.26;100134.66;4870664;29;20064;-73
2021/07/19 02:55:46;;;;;;;8.55;3.83;;;;;;;23.42;65.05;100145.06;4871194;29;20496;-73
2021/07/19 02:58:52;;;;;;;7.15;3.63;;;;;;;23.31;64.68;100149.31;4871102;29;20071;-74
2021/07/19 03:01:59;;;;;;;4.88;3.80;;;;;;;23.27;65.09;100143.44;4870807;29;20056;-74
2021/07/19 03:05:06;;;;;;;6.35;3.80;;;;;;;23.29;65.31;100141.31;4870691;29;20068;-73
2021/07/19 03:08:13;;;;;;;6.05;3.63;;;;;;;23.13;65.74;100136.38;4859776;29;20064;-73
2021/07/19 03:11:56;;;;;;;6.35;4.40;;;;;;;22.90;66.44;100130.63;4882287;29;20073;-73
2021/07/19 03:15:06;;;;;;;7.97;3.95;;;;;;;22.93;66.28;100132.09;4870485;29;20060;-73
2021/07/19 03:18:12;;;;;;;4.53;3.72;;;;;;;22.86;66.54;100134.84;4882217;29;20064;-73
2021/07/19 03:21:17;;;;;;;9.73;4.10;;;;;;;22.85;66.54;100132.34;4882029;29;20397;-73
2021/07/19 03:24:30;;;;;;;7.70;4.20;;;;;;;22.77;67.07;100133.44;4881346;29;20520;-73
2021/07/19 03:27:41;;;;;;;10.88;3.80;;;;;;;22.75;66.94;100137.47;4870669;29;20064;-73
2021/07/19 03:30:48;;;;;;;8.30;4.25;;;;;;;22.72;67.51;100137.88;4881450;29;20060;-73
2021/07/19 03:33:53;;;;;;;5.38;4.00;;;;;;;22.75;67.02;100135.56;4861717;29;20508;-73
2021/07/19 03:36:58;;;;;;;6.63;3.90;;;;;;;22.70;67.62;100132.66;4858857;29;20053;-73
2021/07/19 03:40:05;;;;;;;4.63;3.60;;;;;;;22.69;67.18;100139.16;4862351;29;20053;-73
2021/07/19 03:43:12;;;;;;;6.45;4.28;;;;;;;22.66;67.11;100125.94;4872653;29;20064;-74
2021/07/19 03:46:22;;;;;;;5.78;4.15;;;;;;;22.58;67.68;100131.63;4862868;29;20056;-73
2021/07/19 03:49:30;;;;;;;8.20;3.70;;;;;;;22.53;67.60;100135.00;4863084;29;20068;-73
2021/07/19 03:52:39;;;;;;;6.03;4.00;;;;;;;22.41;68.17;100135.91;4863243;29;20156;-73
2021/07/19 03:55:45;;;;;;;6.18;3.70;;;;;;;22.44;67.42;100130.81;4862157;29;20057;-73
2021/07/19 03:58:50;;;;;;;8.90;3.92;;;;;;;22.41;67.66;100128.53;4862874;29;20052;-73
2021/07/19 04:01:55;;;;;;;5.82;3.90;;;;;;;22.50;67.81;100118.19;4872200;29;20056;-74
2021/07/19 04:05:05;;;;;;;9.45;4.15;;;;;;;22.46;67.51;100131.47;4860456;29;20413;-74
2021/07/19 04:08:17;;;;;;;7.50;4.00;;;;;;;22.37;67.70;100135.47;4860801;29;20057;-74
2021/07/19 04:11:22;;;;;;;7.05;4.20;;;;;;;22.26;67.80;100133.44;4862577;29;20500;-73
2021/07/19 04:14:32;;;;;;;7.32;4.20;;;;;;;22.26;68.08;100141.63;4861742;29;20513;-73
2021/07/19 04:17:38;;;;;;;8.10;3.88;;;;;;;22.16;68.37;100154.06;4861908;29;20068;-74
2021/07/19 04:20:42;;;;;;;5.53;3.92;;;;;;;22.12;68.78;100159.13;4861726;29;20049;-73
2021/07/19 04:23:53;;;;;;;6.25;4.00;;;;;;;22.25;68.24;100150.88;4861644;29;20060;-73
2021/07/19 04:27:03;;;;;;;6.97;3.78;;;;;;;22.44;67.69;100158.19;4861422;29;20398;-73
2021/07/19 04:30:08;;;;;;;9.57;4.47;;;;;;;22.67;66.67;100153.06;4861252;29;20053;-73
2021/07/19 04:33:27;;;;;;;6.43;4.10;;;;;;;22.94;65.86;100167.47;4860978;29;20500;-73
2021/07/19 04:36:34;;;;;;;7.13;4.05;;;;;;;23.20;64.83;100159.09;4861973;29;20533;-73
2021/07/19 04:39:40;;;;;;;8.30;3.88;;;;;;;23.38;64.17;100168.50;4861480;29;20497;-73
2021/07/19 04:42:47;;;;;;;5.93;4.15;;;;;;;23.59;63.45;100173.59;4861095;29;20053;-74
2021/07/19 04:45:52;;;;;;;5.78;3.45;;;;;;;23.71;62.64;100169.91;4861561;29;20060;-73
2021/07/19 04:48:57;;;;;;;8.02;3.92;;;;;;;23.78;61.70;100156.13;4861094;29;20060;-74
2021/07/19 04:52:01;;;;;;;5.75;3.55;;;;;;;23.87;61.35;100154.78;4861378;29;20500;-73
2021/07/19 04:55:09;;;;;;;5.05;3.40;;;;;;;24.16;61.06;100154.09;4862008;29;20056;-74
2021/07/19 04:58:16;;;;;;;6.10;3.33;;;;;;;24.39;59.81;100151.47;4862218;29;20048;-73
2021/07/19 05:01:22;;;;;;;5.50;3.75;;;;;;;24.63;59.00;100155.22;4861737;29;20052;-72
2021/07/19 05:04:28;;;;;;;7.93;3.53;;;;;;;24.97;58.72;100145.50;4861451;29;20060;-73
2021/07/19 05:07:34;;;;;;;5.90;3.40;;;;;;;25.43;56.73;100145.63;4860827;29;20066;-73
2021/07/19 05:10:41;;;;;;;7.32;3.75;;;;;;;25.92;55.78;100152.66;4861944;29;20057;-73
2021/07/19 05:13:46;;;;;;;21.80;15.77;;;;;;;26.35;53.96;100155.88;4861522;29;20064;-73
2021/07/19 05:16:51;;;;;;;10.25;7.22;;;;;;;26.47;53.29;100151.19;4861538;29;20046;-75
2021/07/19 05:19:56;;;;;;;6.10;3.30;;;;;;;26.84;52.80;100148.09;4861860;29;20046;-73
2021/07/19 05:23:00;;;;;;;5.05;3.30;;;;;;;27.46;51.12;100141.56;4861752;29;20064;-73
2021/07/19 05:26:04;;;;;;;4.93;2.90;;;;;;;28.29;48.75;100146.22;4861625;29;20052;-74
2021/07/19 05:29:10;;;;;;;6.25;2.90;;;;;;;28.60;48.09;100139.16;4861376;29;20056;-74
2021/07/19 05:32:15;;;;;;;5.70;2.88;;;;;;;29.18;46.67;100150.38;4861554;29;20057;-75
2021/07/19 05:35:19;;;;;;;4.20;2.90;;;;;;;29.46;45.80;100154.81;4868766;29;20060;-74
2021/07/19 05:38:24;;;;;;;6.95;2.80;;;;;;;30.21;44.44;100151.81;4880198;29;20064;-74
2021/07/19 05:41:28;;;;;;;4.72;2.58;;;;;;;31.92;41.23;100154.28;4880178;29;20472;-74
2021/07/19 05:44:32;;;;;;;13.23;2.95;;;;;;;33.05;39.25;100155.38;4880176;29;20057;-75
2021/07/19 05:47:38;;;;;;;7.07;2.00;;;;;;;34.70;35.76;100148.63;4880173;29;20064;-76
2021/07/19 05:50:42;;;;;;;7.78;2.80;;;;;;;35.68;33.90;100150.56;4879694;29;20060;-74
2021/07/19 05:53:46;;;;;;;5.97;2.13;;;;;;;37.02;31.57;100142.69;4879087;29;20064;-75
2021/07/19 05:56:51;;;;;;;6.68;2.45;;;;;;;38.48;29.72;100154.16;4873507;29;20084;-75
2021/07/19 05:59:59;;;;;;;8.43;2.58;;;;;;;38.21;30.90;100156.00;4864721;29;20056;-75
2021/07/19 06:03:05;;;;;;;3.58;2.33;;;;;;;39.79;28.92;100152.91;4882585;29;20084;-77
2021/07/19 06:06:09;;;;;;;5.28;2.30;;;;;;;40.19;28.37;100151.53;4882791;29;20065;-75
2021/07/19 06:09:14;;;;;;;5.47;2.42;;;;;;;40.63;27.87;100151.03;4883359;29;20056;-72
2021/07/19 06:12:18;;;;;;;4.47;2.55;;;;;;;39.89;29.17;100156.19;4871939;29;20108;-74
2021/07/19 06:15:23;;;;;;;8.65;3.00;;;;;;;39.00;30.54;100159.63;4882885;29;20076;-75
2021/07/19 06:18:27;;;;;;;10.10;3.03;;;;;;;38.88;29.73;100167.03;4883205;29;20075;-75
2021/07/19 06:21:32;;;;;;;7.60;3.05;;;;;;;39.54;29.27;100157.38;4869579;29;20045;-75
2021/07/19 06:24:38;;;;;;;7.78;2.60;;;;;;;40.62;27.63;100156.97;4873929;29;20080;-75
2021/07/19 06:27:44;;;;;;;6.97;2.53;;;;;;;41.51;26.28;100160.22;4869984;29;20052;-75
2021/07/19 06:30:51;;;;;;;8.40;2.72;;;;;;;42.56;25.39;100161.66;4882527;29;20385;-73
2021/07/19 06:33:55;;;;;;;7.38;2.50;;;;;;;43.45;24.29;100160.53;4869875;29;20413;-73
2021/07/19 06:37:00;;;;;;;4.78;2.38;;;;;;;44.24;22.90;100164.44;4882032;29;20060;-73
2021/07/19 06:40:06;;;;;;;6.43;2.45;;;;;;;44.11;23.61;100157.19;4882293;29;20508;-73
2021/07/19 06:43:11;;;;;;;6.32;2.25;;;;;;;45.60;21.70;100160.53;4882481;29;20064;-72
2021/07/19 06:46:15;;;;;;;8.00;2.20;;;;;;;46.53;21.30;100163.13;4882503;29;20056;-73
2021/07/19 06:49:19;;;;;;;4.53;2.10;;;;;;;46.59;20.71;100162.44;4882405;29;20068;-73
2021/07/19 06:52:24;;;;;;;8.45;2.45;;;;;;;47.97;19.93;100147.38;4881064;29;20405;-73
2021/07/19 06:55:28;;;;;;;5.38;2.33;;;;;;;47.58;20.11;100164.00;4871025;29;20052;-74
2021/07/19 06:58:33;;;;;;;3.85;2.30;;;;;;;47.84;19.96;100163.91;4870232;29;20060;-74
2021/07/19 07:01:39;;;;;;;4.10;2.50;;;;;;;46.47;21.18;100176.03;4870705;29;20064;-74
2021/07/19 07:04:44;;;;;;;8.73;3.05;;;;;;;47.41;20.38;100170.25;4870364;29;20056;-73
2021/07/19 07:07:49;;;;;;;5.07;2.65;;;;;;;47.88;20.05;100166.81;4880264;29;20052;-74
2021/07/19 07:10:55;;;;;;;8.27;2.90;;;;;;;48.92;19.18;100166.22;4866962;29;20056;-74
2021/07/19 07:13:59;;;;;;;8.65;2.70;;;;;;;49.25;19.04;100170.09;4880955;29;20060;-73
2021/07/19 07:17:03;;;;;;;7.68;2.22;;;;;;;49.26;19.26;100166.84;4881693;29;20052;-74
2021/07/19 07:20:12;;;;;;;10.05;2.58;;;;;;;49.45;19.29;100168.59;4881602;29;20060;-73
2021/07/19 07:23:16;;;;;;;5.32;2.42;;;;;;;49.82;18.63;100174.06;4869748;29;20053;-74
2021/07/19 07:26:21;;;;;;;7.28;2.33;;;;;;;50.47;18.06;100170.97;4880826;29;20055;-75
2021/07/19 07:29:25;;;;;;;10.07;2.45;;;;;;;50.70;17.91;100177.94;4870114;29;20056;-74
2021/07/19 07:32:30;;;;;;;5.32;2.10;;;;;;;52.05;16.69;100189.88;4880754;29;20052;-74
2021/07/19 07:35:40;;;;;;;5.68;2.30;;;;;;;50.97;17.46;100178.31;4880976;29;20048;-74
2021/07/19 07:38:45;;;;;;;6.25;2.20;;;;;;;49.67;18.75;100176.06;4881578;29;20056;-74
2021/07/19 07:41:49;;;;;;;6.15;2.60;;;;;;;49.95;18.37;100178.22;4868553;29;20060;-73
2021/07/19 07:44:53;;;;;;;6.13;2.17;;;;;;;48.67;18.76;100176.56;4878253;29;20425;-74
2021/07/19 07:47:57;;;;;;;3.67;2.10;;;;;;;49.00;18.63;100174.81;4878988;29;20393;-74
2021/07/19 07:51:06;;;;;;;7.40;2.30;;;;;;;49.24;17.91;100177.84;4877912;29;20072;-74
2021/07/19 07:54:10;;;;;;;5.68;2.50;;;;;;;51.46;17.00;100176.59;4879080;29;20072;-74
2021/07/19 07:57:15;;;;;;;4.70;2.22;;;;;;;52.82;16.14;100170.47;4868795;29;20056;-74
2021/07/19 08:00:20;;;;;;;5.93;2.15;;;;;;;52.80;15.57;100170.03;4880943;29;20072;-74
2021/07/19 08:03:25;;;;;;;12.07;2.42;;;;;;;51.15;16.78;100167.66;4881147;29;20052;-73
2021/07/19 08:06:29;;;;;;;6.93;2.67;;;;;;;50.47;16.61;100166.03;4880911;29;20060;-74
2021/07/19 08:09:35;;;;;;;5.43;2.30;;;;;;;52.14;16.21;100167.28;4880907;29;20056;-74
2021/07/19 08:12:43;;;;;;;10.43;2.60;;;;;;;50.98;16.70;100168.53;4858477;29;20056;-74
2021/07/19 08:15:48;;;;;;;8.18;2.25;;;;;;;51.44;16.44;100170.44;4879845;29;20485;-73
2021/07/19 08:18:52;;;;;;;10.45;2.42;;;;;;;50.62;16.92;100164.06;4867759;29;20048;-73
2021/07/19 08:21:57;;;;;;;11.13;2.33;;;;;;;49.66;17.29;100162.16;4877968;29;20060;-74
2021/07/19 08:25:02;;;;;;;13.88;2.50;;;;;;;47.52;19.12;100166.34;4867572;29;20045;-74
2021/07/19 08:28:09;;;;;;;5.57;2.38;;;;;;;45.96;20.87;100170.56;4878265;29;20060;-73
2021/07/19 08:31:13;;;;;;;10.13;2.40;;;;;;;44.14;22.92;100167.81;4879644;29;20052;-75
2021/07/19 08:34:18;;;;;;;8.20;2.92;;;;;;;41.53;25.31;100163.53;4876326;29;20052;-73
2021/07/19 08:37:22;;;;;;;13.82;2.80;;;;;;;39.98;26.85;100167.41;4876267;29;20425;-73
2021/07/19 08:40:27;;;;;;;6.43;2.53;;;;;;;39.13;28.31;100166.25;4877403;29;20053;-72
2021/07/19 08:43:32;;;;;;;6.90;2.80;;;;;;;38.47;29.63;100170.16;4877502;29;20060;-75
2021/07/19 08:46:37;;;;;;;16.10;2.85;;;;;;;37.67;29.85;100168.31;4877732;29;20052;-73
2021/07/19 08:49:42;;;;;;;10.68;2.92;;;;;;;37.69;30.62;100154.81;4879084;29;20049;-74
2021/07/19 08:52:49;;;;;;;9.40;2.92;;;;;;;37.06;31.00;100154.88;4868814;29;20492;-75
2021/07/19 08:55:55;;;;;;;9.65;3.30;;;;;;;36.99;30.25;100157.28;4880557;29;20059;-74
2021/07/19 08:59:00;;;;;;;6.82;2.72;;;;;;;35.32;31.51;100149.44;4869174;29;20393;-74
2021/07/19 09:02:05;;;;;;;7.05;2.47;;;;;;;34.74;32.71;100160.03;4880320;29;20385;-75
2021/07/19 09:05:10;;;;;;;4.93;2.85;;;;;;;34.89;32.82;100149.47;4879684;29;20076;-77
2021/07/19 09:08:14;;;;;;;7.03;2.75;;;;;;;35.07;32.37;100150.66;4880470;29;20052;-74
2021/07/19 09:11:21;;;;;;;5.13;3.13;;;;;;;34.87;32.38;100146.16;4880476;29;20068;-73
2021/07/19 09:14:26;;;;;;;4.80;2.78;;;;;;;35.11;32.48;100146.16;4879544;29;20056;-73
2021/07/19 09:17:30;;;;;;;5.13;2.78;;;;;;;35.38;32.20;100146.28;4880100;29;20072;-73
2021/07/19 09:20:38;;;;;;;8.45;2.78;;;;;;;35.78;31.70;100139.22;4880093;29;20052;-73
2021/07/19 09:23:43;;;;;;;6.70;2.72;;;;;;;36.37;30.71;100139.25;4880289;29;20060;-75
2021/07/19 09:26:49;;;;;;;6.75;2.60;;;;;;;35.66;30.63;100138.88;4880307;29;20389;-75
2021/07/19 09:29:56;;;;;;;4.45;2.50;;;;;;;35.39;30.73;100135.94;4868496;29;20052;-73
2021/07/19 09:33:04;;;;;;;4.50;2.72;;;;;;;34.96;31.34;100140.75;4881297;29;20060;-74
2021/07/19 09:36:08;;;;;;;5.35;2.80;;;;;;;35.11;31.85;100138.59;4883686;29;20068;-74
2021/07/19 09:39:14;;;;;;;6.72;2.70;;;;;;;34.94;31.63;100143.81;4871937;29;20496;-73
2021/07/19 09:42:21;;;;;;;12.10;2.90;;;;;;;34.85;32.26;100142.84;4883574;29;20065;-74
2021/07/19 09:45:29;;;;;;;9.57;2.85;;;;;;;34.86;31.59;100138.09;4883791;29;20045;-75
2021/07/19 09:48:56;;;;;;;6.78;3.30;;;;;;;34.32;31.50;100138.47;4883755;29;20393;-73
2021/07/19 09:52:07;;;;;;;5.75;2.67;;;;;;;34.08;31.38;100141.22;4883426;29;20432;-73
2021/07/19 09:55:22;;;;;;;5.03;2.75;;;;;;;34.09;31.77;100139.28;4883051;29;20056;-73
2021/07/19 09:58:27;;;;;;;7.15;2.67;;;;;;;34.03;31.90;100132.88;4883285;29;20048;-74
2021/07/19 10:01:35;;;;;;;8.05;3.20;;;;;;;34.19;32.36;100125.22;4871776;29;20397;-76
2021/07/19 10:04:43;;;;;;;8.70;3.00;;;;;;;34.33;32.32;100127.00;4883251;29;20053;-76
2021/07/19 10:07:47;;;;;;;7.90;2.95;;;;;;;34.44;31.92;100130.53;4881816;29;20056;-74
2021/07/19 10:10:52;;;;;;;7.75;2.72;;;;;;;34.13;32.77;100131.97;4883089;29;20057;-74
2021/07/19 10:13:58;;;;;;;6.28;2.95;;;;;;;34.07;32.97;100133.16;4882820;29;20060;-77
2021/07/19 10:17:03;;;;;;;6.07;3.25;;;;;;;34.07;32.82;100119.25;4882899;29;20056;-74
2021/07/19 10:20:08;;;;;;;5.82;2.63;;;;;;;33.82;32.52;100128.66;4882979;29;20056;-74
2021/07/19 10:23:13;;;;;;;5.63;2.50;;;;;;;33.87;32.50;100134.16;4882719;29;20056;-75
2021/07/19 10:26:18;;;;;;;3.67;2.45;;;;;;;33.93;33.02;100124.63;4883023;29;20060;-75
2021/07/19 10:29:23;;;;;;;3.80;2.42;;;;;;;33.86;33.00;100124.13;4883048;29;20377;-73
2021/07/19 10:32:31;;;;;;;5.07;2.70;;;;;;;33.87;32.88;100123.03;4871190;29;20060;-76
2021/07/19 10:35:36;;;;;;;4.40;2.80;;;;;;;33.79;32.80;100118.91;4882589;29;20052;-74
2021/07/19 10:38:42;;;;;;;7.88;2.60;;;;;;;34.06;32.79;100117.56;4882841;29;20125;-73
2021/07/19 10:41:58;;;;;;;5.07;2.75;;;;;;;34.16;32.58;100117.44;4882851;29;20060;-72
2021/07/19 10:45:08;;;;;;;7.22;2.72;;;;;;;33.98;31.53;100122.63;4881758;29;20056;-73
2021/07/19 10:48:32;;;;;;;5.18;2.63;;;;;;;33.73;31.65;100116.44;4871134;29;20056;-73
2021/07/19 10:51:47;;;;;;;7.00;2.90;;;;;;;33.58;32.08;100119.41;4882653;29;20381;-73
2021/07/19 10:54:52;;;;;;;6.22;2.83;;;;;;;33.31;32.69;100120.69;4882579;29;20076;-73
2021/07/19 10:58:08;;;;;;;5.80;2.90;;;;;;;33.15;33.04;100121.09;4882492;29;20052;-74
2021/07/19 11:01:22;;;;;;;5.32;3.17;;;;;;;33.30;33.06;100110.69;4882457;29;20393;-73
2021/07/19 11:04:28;;;;;;;5.85;2.90;;;;;;;33.61;33.11;100104.88;4870601;29;20397;-73
2021/07/19 11:07:40;;;;;;;5.85;2.75;;;;;;;33.88;32.92;100102.38;4882017;29;20500;-73
2021/07/19 11:10:47;;;;;;;5.15;3.00;;;;;;;33.97;32.56;100100.66;4870854;29;20044;-73
2021/07/19 11:14:02;;;;;;;5.45;2.88;;;;;;;34.02;31.89;100097.81;4870554;29;20064;-73
2021/07/19 11:17:10;;;;;;;5.60;2.97;;;;;;;34.09;31.90;100095.53;4881954;29;20492;-74
2021/07/19 11:20:15;;;;;;;3.88;2.55;;;;;;;34.22;32.83;100088.41;4882186;29;20061;-73
2021/07/19 11:23:35;;;;;;;4.93;2.50;;;;;;;34.26;32.58;100083.91;4882089;29;20052;-73
2021/07/19 11:26:57;;;;;;;5.07;3.10;;;;;;;34.24;32.61;100080.59;4882041;29;20393;-73
2021/07/19 11:30:22;;;;;;;4.00;2.53;;;;;;;33.77;32.96;100084.13;4882013;29;20060;-73
2021/07/19 11:33:43;;;;;;;4.93;3.13;;;;;;;33.35;33.18;100073.63;4881278;29;20080;-73
2021/07/19 11:36:48;;;;;;;3.95;2.65;;;;;;;33.56;33.17;100080.69;4870308;29;20060;-75
2021/07/19 11:39:57;;;;;;;5.55;2.90;;;;;;;33.52;32.54;100081.56;4881452;29;20056;-73
2021/07/19 11:43:24;;;;;;;4.75;3.00;;;;;;;33.62;32.42;100078.72;4881693;29;20060;-74
2021/07/19 11:46:37;;;;;;;6.53;3.10;;;;;;;33.49;32.19;100080.19;4881376;29;20130;-73
2021/07/19 11:49:42;;;;;;;5.20;2.72;;;;;;;33.57;32.41;100076.81;4869853;29;20056;-76
2021/07/19 11:52:48;;;;;;;3.90;2.50;;;;;;;33.39;32.29;100075.53;4880316;29;20064;-73
2021/07/19 11:55:52;;;;;;;6.65;2.80;;;;;;;33.25;33.21;100070.94;4881212;29;20294;-75
2021/07/19 11:59:02;;;;;;;10.25;2.88;;;;;;;33.33;33.02;100064.75;4881191;29;20065;-74
2021/07/19 12:02:07;;;;;;;5.68;2.80;;;;;;;33.57;33.01;100064.84;4881368;29;20056;-72
2021/07/19 12:05:15;;;;;;;4.47;2.85;;;;;;;33.60;32.88;100070.66;4881334;29;20163;-72
2021/07/19 12:08:35;;;;;;;7.15;2.70;;;;;;;33.62;32.62;100068.41;4880994;29;20056;-72
2021/07/19 12:11:40;;;;;;;3.38;2.35;;;;;;;33.59;32.11;100068.97;4880839;29;20048;-74
2021/07/19 12:14:57;;;;;;;4.57;2.30;;;;;;;33.68;31.77;100058.03;4869308;29;20084;-73
2021/07/19 12:18:02;;;;;;;5.65;2.65;;;;;;;33.51;32.03;100061.22;4869433;29;20065;-73
2021/07/19 12:21:23;;;;;;;7.50;3.17;;;;;;;33.54;32.46;100059.81;4880542;29;20052;-74
2021/07/19 12:24:30;;;;;;;5.88;2.40;;;;;;;33.56;32.20;100052.84;4869565;29;20056;-75
2021/07/19 12:27:34;;;;;;;4.38;2.53;;;;;;;33.41;31.93;100051.00;4880647;29;20492;-75
2021/07/19 12:30:39;;;;;;;5.18;2.60;;;;;;;33.42;31.74;100046.28;4880916;29;20403;-73
2021/07/19 12:33:43;;;;;;;7.38;2.55;;;;;;;33.48;31.74;100053.44;4880069;29;20056;-74
2021/07/19 12:36:51;;;;;;;8.07;3.03;;;;;;;33.49;32.34;100046.78;4880542;29;20484;-75
2021/07/19 12:39:59;;;;;;;5.50;2.50;;;;;;;33.32;32.25;100044.44;4880503;29;20401;-72
2021/07/19 12:43:03;;;;;;;7.35;2.50;;;;;;;33.22;32.75;100052.03;4880351;29;20060;-75
2021/07/19 12:46:10;;;;;;;7.20;2.40;;;;;;;33.20;32.46;100045.91;4869111;29;20052;-75
2021/07/19 12:49:28;;;;;;;5.13;2.40;;;;;;;33.29;32.33;100047.78;4880358;29;20052;-73
2021/07/19 12:52:34;;;;;;;5.72;2.75;;;;;;;33.17;32.26;100025.06;4880162;29;20056;-73
2021/07/19 12:55:38;;;;;;;6.35;2.90;;;;;;;33.02;32.66;100036.28;4869114;29;20056;-73
2021/07/19 12:59:05;;;;;;;3.90;2.65;;;;;;;33.04;32.65;100038.81;4880613;29;20064;-73
2021/07/19 13:02:16;;;;;;;5.53;2.97;;;;;;;33.13;32.78;100037.91;4880283;29;20048;-73
2021/07/19 13:05:20;;;;;;;5.63;2.83;;;;;;;33.20;30.98;100032.84;4880233;29;20056;-73
2021/07/19 13:08:31;;;;;;;6.50;2.60;;;;;;;33.19;31.54;100033.97;4879687;29;20071;-73
2021/07/19 13:11:40;;;;;;;5.93;2.97;;;;;;;33.26;31.66;100041.97;4880487;29;20511;-73
2021/07/19 13:14:47;;;;;;;5.40;2.70;;;;;;;33.25;31.98;100043.09;4880211;29;20076;-73
2021/07/19 13:18:04;;;;;;;6.80;2.85;;;;;;;33.28;31.38;100034.19;4880409;29;20084;-73
2021/07/19 13:21:12;;;;;;;5.07;2.72;;;;;;;33.35;31.20;100029.09;4868748;29;20060;-74
2021/07/19 13:24:16;;;;;;;6.28;2.55;;;;;;;33.38;32.23;100029.31;4880330;29;20056;-73
2021/07/19 13:27:20;;;;;;;4.32;2.30;;;;;;;33.37;31.52;100026.84;4880037;29;20123;-73
2021/07/19 13:30:32;;;;;;;6.43;2.40;;;;;;;33.31;32.03;100028.84;4880299;29;20056;-73
2021/07/19 13:33:44;;;;;;;7.35;2.58;;;;;;;33.34;32.27;100035.78;4879633;29;20061;-73
2021/07/19 13:36:52;;;;;;;5.00;2.50;;;;;;;33.24;32.36;100033.91;4868700;29;20056;-73
2021/07/19 13:40:08;;;;;;;6.30;2.97;;;;;;;32.95;32.41;100035.78;4880139;29;20060;-73
2021/07/19 13:43:14;;;;;;;7.78;2.40;;;;;;;32.93;31.99;100032.47;4868671;29;20076;-73
2021/07/19 13:46:18;;;;;;;4.88;2.53;;;;;;;32.87;31.06;100030.00;4880172;29;20048;-73
2021/07/19 13:49:24;;;;;;;6.00;2.40;;;;;;;32.97;30.92;100032.72;4868722;29;20060;-75
2021/07/19 13:52:29;;;;;;;3.50;2.38;;;;;;;33.17;30.51;100032.59;4879862;29;20064;-74
2021/07/19 13:55:35;;;;;;;8.30;2.22;;;;;;;33.25;30.43;100027.25;4879604;29;20068;-73
2021/07/19 13:58:43;;;;;;;4.38;2.20;;;;;;;33.38;30.10;100026.53;4880030;29;20060;-74
2021/07/19 14:01:48;;;;;;;8.05;2.10;;;;;;;33.31;29.92;100028.84;4879802;29;20393;-73
2021/07/19 14:04:52;;;;;;;4.47;2.53;;;;;;;33.45;29.62;100023.44;4880009;29;20108;-73
2021/07/19 14:07:56;;;;;;;4.10;2.45;;;;;;;33.37;28.78;100022.13;4879721;29;20061;-75
2021/07/19 14:11:00;;;;;;;7.45;2.40;;;;;;;33.25;28.29;100018.88;4879940;29;20056;-73
2021/07/19 14:14:06;;;;;;;5.65;2.42;;;;;;;33.28;29.04;100017.47;4879801;29;20060;-73
2021/07/19 14:17:11;;;;;;;3.70;2.33;;;;;;;33.29;29.09;100008.00;4879942;29;20056;-75
2021/07/19 14:20:16;;;;;;;5.43;2.40;;;;;;;33.32;29.24;100008.25;4881825;29;20068;-73
2021/07/19 14:23:21;;;;;;;5.95;2.60;;;;;;;33.31;29.01;100005.75;4871771;29;20158;-73
2021/07/19 14:26:25;;;;;;;7.00;2.42;;;;;;;33.29;28.97;100014.38;4883134;29;20052;-73
2021/07/19 14:29:31;;;;;;;8.88;2.42;;;;;;;33.28;28.73;100018.28;4883091;29;20052;-73
2021/07/19 14:32:36;;;;;;;7.70;2.47;;;;;;;33.18;28.54;100012.81;4871315;29;20706;-73